MI44 weather

D J Airport
Mount Pleasant, Michigan, United States

Public forecast

Using degrees Fahrenheit for public forecast. Weather courtesy of forecast.io.

METAR (pilot weather report)

Closest report is Mount Pleasant Municipal Airport, 3.0 nm (5.6 km) S. Retrieved 2019/09/15 06:37 UTC (13 minutes ago):

KMOP 150637Z AUTO 00000KT 10SM SCT120 14/14 A3014 RMK AO2 T01430142

TAF (pilot weather forecast)

Closest forecast is MBS International Airport, 29.8 nm (55.1 km) ESE. Retrieved 2019/09/15 06:22 UTC (28 minutes ago):

TAF KMBS 150520Z 1506/1606 24006KT P6SM BKN250 FM150800 18007KT P6SM BKN080 OVC100 TEMPO 1509/1513 5SM SHRA SCT040 OVC060 FM151300 22009KT P6SM VCSH SCT025 OVC035 FM151800 26006KT P6SM SCT018 OVC028 FM160000 VRB03KT P6SM SCT025 OVC035